Time;durP1;ratioP1;P1;durP2;ratioP2;P2;SDS_P1;SDS_P2;PMS_P1;PMS_P2;Temp;Humidity;BMP_temperature;BMP_pressure;BME280_temperature;BME280_humidity;BME280_pressure;Samples;Min_cycle;Max_cycle;Signal;HPM_P1;HPM_P2
2022/06/18 00:00:43;;;;;;;0.70;0.60;;;19.00;99.90;;;;;;5078379;28;20127;-70
2022/06/18 00:03:09;;;;;;;;;;;19.00;99.90;;;;;;5066603;28;20131;-70
2022/06/18 00:05:36;;;;;;;1.17;0.70;;;19.00;99.90;;;;;;5066121;28;20273;-70
2022/06/18 00:08:06;;;;;;;1.00;0.70;;;19.00;99.90;;;;;;5047659;28;20059;-70
2022/06/18 00:10:32;;;;;;;0.82;0.70;;;19.00;99.90;;;;;;5064418;28;20041;-70
2022/06/18 00:13:40;;;;;;;0.70;0.70;;;19.00;99.90;;;;;;5067075;28;20411;-70
2022/06/18 00:16:17;;;;;;;;;;;18.90;99.90;;;;;;5067594;28;20139;-70
2022/06/18 00:18:43;;;;;;;1.00;0.73;;;18.90;99.90;;;;;;5061478;28;20340;-70
2022/06/18 00:21:17;;;;;;;0.70;0.57;;;18.90;99.90;;;;;;5068140;28;20072;-70
2022/06/18 00:23:43;;;;;;;0.90;0.73;;;18.90;99.90;;;;;;5066156;28;20044;-76
2022/06/18 00:26:10;;;;;;;0.85;0.70;;;18.90;99.90;;;;;;5072248;28;20044;-76
2022/06/18 00:28:36;;;;;;;0.70;0.70;;;18.90;99.90;;;;;;5051578;28;20043;-76
2022/06/18 00:31:03;;;;;;;0.88;0.80;;;18.90;99.90;;;;;;5052883;28;20522;-76
2022/06/18 00:33:29;;;;;;;0.88;0.57;;;18.90;99.90;;;;;;5070212;28;20048;-76
2022/06/18 00:35:56;;;;;;;;;;;18.90;99.90;;;;;;5069713;28;20476;-76
2022/06/18 00:38:21;;;;;;;;;;;18.90;99.90;;;;;;5071384;28;19924;-76
2022/06/18 00:40:47;;;;;;;0.75;0.70;;;18.90;99.90;;;;;;5065033;28;20386;-76
2022/06/18 00:43:16;;;;;;;;;;;18.80;99.90;;;;;;5066234;28;20037;-76
2022/06/18 00:45:41;;;;;;;1.00;0.90;;;18.80;99.90;;;;;;5066884;28;19920;-76
2022/06/18 00:48:26;;;;;;;;;;;18.80;99.90;;;;;;5050832;28;20764;-76
2022/06/18 00:51:32;;;;;;;1.45;1.10;;;18.80;99.90;;;;;;5063022;28;20266;-76
2022/06/18 00:54:11;;;;;;;1.27;1.17;;;18.80;99.90;;;;;;5053095;28;20116;-76
2022/06/18 00:57:17;;;;;;;1.10;1.00;;;18.80;99.90;;;;;;5067338;28;20097;-76
2022/06/18 00:59:52;;;;;;;1.33;0.90;;;18.70;99.90;;;;;;5073083;28;20040;-76
2022/06/18 01:02:22;;;;;;;1.20;0.95;;;18.70;99.90;;;;;;5073068;28;20036;-76
2022/06/18 01:04:47;;;;;;;1.20;0.98;;;18.70;99.90;;;;;;5071531;28;20441;-75
2022/06/18 01:07:27;;;;;;;;;;;18.60;99.90;;;;;;5068774;28;20036;-75
2022/06/18 01:09:53;;;;;;;1.17;0.82;;;18.60;99.90;;;;;;5065020;28;20699;-75
2022/06/18 01:12:21;;;;;;;0.88;0.88;;;18.60;99.90;;;;;;5069745;28;20029;-75
2022/06/18 01:14:51;;;;;;;0.70;0.70;;;18.50;99.90;;;;;;5050834;28;20070;-75
2022/06/18 01:17:18;;;;;;;1.23;0.80;;;18.50;99.90;;;;;;5063899;28;20060;-69
2022/06/18 01:19:47;;;;;;;0.95;0.80;;;18.50;99.90;;;;;;5063614;28;20071;-69
2022/06/18 01:22:22;;;;;;;1.25;0.85;;;18.40;99.90;;;;;;5063574;28;20044;-69
2022/06/18 01:24:48;;;;;;;1.20;0.75;;;18.40;99.90;;;;;;5052820;28;20090;-69
2022/06/18 01:27:14;;;;;;;;;;;18.40;99.90;;;;;;5050568;28;20036;-70
2022/06/18 01:29:40;;;;;;;1.23;0.93;;;18.30;99.90;;;;;;5066719;28;19917;-70
2022/06/18 01:32:10;;;;;;;1.95;1.00;;;18.30;99.90;;;;;;5068184;28;20471;-69
2022/06/18 01:34:36;;;;;;;0.85;0.80;;;18.30;99.90;;;;;;5064803;28;20090;-70
2022/06/18 01:37:03;;;;;;;0.80;0.63;;;18.20;99.90;;;;;;5064225;28;20213;-70
2022/06/18 01:39:39;;;;;;;1.60;0.90;;;18.20;99.90;;;;;;5064020;28;20035;-69
2022/06/18 01:42:08;;;;;;;0.60;0.60;;;18.10;99.90;;;;;;5064670;28;20040;-69
2022/06/18 01:44:51;;;;;;;0.85;0.85;;;18.10;99.90;;;;;;5063506;28;20040;-70
2022/06/18 01:47:39;;;;;;;1.42;1.20;;;18.10;99.90;;;;;;5059865;28;20051;-69
2022/06/18 01:50:18;;;;;;;1.52;1.20;;;18.10;99.90;;;;;;5075263;28;20056;-70
2022/06/18 01:52:47;;;;;;;1.15;1.05;;;18.10;99.90;;;;;;5046409;28;20391;-70
2022/06/18 01:55:18;;;;;;;1.20;1.10;;;18.10;99.90;;;;;;5047012;28;20052;-70
2022/06/18 01:57:49;;;;;;;1.85;1.20;;;18.10;99.90;;;;;;5061259;28;20967;-70
2022/06/18 02:00:18;;;;;;;1.00;0.95;;;18.10;99.90;;;;;;5070254;28;20040;-69
2022/06/18 02:02:45;;;;;;;3.22;1.42;;;18.10;99.90;;;;;;5062043;28;20506;-70
2022/06/18 02:05:13;;;;;;;1.30;1.13;;;18.10;99.90;;;;;;5046421;28;20086;-69
2022/06/18 02:07:40;;;;;;;1.75;1.40;;;18.10;99.90;;;;;;5043737;28;20495;-69
2022/06/18 02:10:12;;;;;;;1.95;1.60;;;18.10;99.90;;;;;;5059692;28;20040;-69
2022/06/18 02:12:40;;;;;;;1.75;1.40;;;18.00;99.90;;;;;;5062812;28;20040;-69
2022/06/18 02:15:10;;;;;;;3.00;1.60;;;17.90;99.90;;;;;;5061505;28;20040;-69
2022/06/18 02:17:38;;;;;;;2.83;1.98;;;17.90;99.90;;;;;;5065174;28;20532;-75
2022/06/18 02:20:10;;;;;;;2.85;1.50;;;17.90;99.90;;;;;;5068942;28;20502;-75
2022/06/18 02:22:42;;;;;;;1.73;1.52;;;17.90;99.90;;;;;;5065340;28;20063;-75
2022/06/18 02:25:09;;;;;;;1.55;1.30;;;17.90;99.90;;;;;;5048462;28;20483;-75
2022/06/18 02:27:35;;;;;;;1.35;1.20;;;18.00;99.90;;;;;;5066467;28;20072;-75
2022/06/18 02:30:00;;;;;;;;;;;17.90;99.90;;;;;;5066480;28;20071;-75
2022/06/18 02:32:37;;;;;;;1.13;1.00;;;17.90;99.90;;;;;;5062238;28;20340;-75
2022/06/18 02:35:12;;;;;;;;;;;17.90;99.90;;;;;;5047449;28;20041;-75
2022/06/18 02:37:38;;;;;;;1.30;1.20;;;17.90;99.90;;;;;;5065040;28;19947;-75
2022/06/18 02:40:04;;;;;;;;;;;17.90;99.90;;;;;;5065021;28;21259;-75
2022/06/18 02:42:33;;;;;;;1.65;1.42;;;17.80;99.90;;;;;;5046482;28;19917;-75
2022/06/18 02:45:03;;;;;;;1.60;1.50;;;17.80;99.90;;;;;;5042302;28;20064;-75
2022/06/18 02:47:28;;;;;;;3.60;2.20;;;17.70;99.90;;;;;;5052292;28;20140;-70
2022/06/18 02:49:56;;;;;;;;;;;17.70;99.90;;;;;;5054948;28;20120;-70
2022/06/18 02:52:26;;;;;;;3.35;2.13;;;17.70;99.90;;;;;;5062784;28;19959;-70
2022/06/18 02:55:00;;;;;;;4.55;3.33;;;17.70;99.90;;;;;;5063793;28;20044;-70
2022/06/18 02:57:28;;;;;;;6.25;4.53;;;17.80;99.90;;;;;;5062437;28;20589;-69
2022/06/18 02:59:54;;;;;;;6.55;3.75;;;17.80;99.90;;;;;;5062065;28;20044;-69
2022/06/18 03:02:19;;;;;;;;;;;17.90;99.90;;;;;;5061422;28;20036;-69
2022/06/18 03:04:45;;;;;;;6.60;4.38;;;17.90;99.90;;;;;;5060265;28;20441;-70
2022/06/18 03:07:11;;;;;;;7.28;4.38;;;17.90;99.90;;;;;;5062466;28;20047;-70
2022/06/18 03:12:06;;;;;;;4.53;3.08;;;17.90;99.90;;;;;;5063080;28;20086;-72
2022/06/18 03:12:22;;;;;;;4.68;3.88;;;17.90;99.90;;;;;;5061283;28;20497;-69
2022/06/18 03:14:47;;;;;;;;;;;17.90;99.90;;;;;;5063134;28;20029;-69
2022/06/18 03:17:13;;;;;;;4.55;3.70;;;17.80;99.90;;;;;;5060175;28;19920;-75
2022/06/18 03:19:49;;;;;;;5.95;3.40;;;17.80;99.90;;;;;;5063164;28;20068;-75
2022/06/18 03:22:19;;;;;;;3.95;3.20;;;17.80;99.90;;;;;;5062605;28;20068;-75
2022/06/18 03:24:45;;;;;;;3.70;2.72;;;17.70;99.90;;;;;;5065886;28;21018;-75
2022/06/18 03:27:14;;;;;;;;;;;17.70;99.90;;;;;;5069005;28;20037;-75
2022/06/18 03:29:40;;;;;;;7.88;5.38;;;17.60;99.90;;;;;;5064900;28;19913;-75
2022/06/18 03:32:07;;;;;;;9.73;6.05;;;17.60;99.90;;;;;;5062927;28;20106;-75
2022/06/18 03:34:33;;;;;;;9.30;6.13;;;17.50;99.90;;;;;;5045213;28;20032;-75
2022/06/18 03:36:58;;;;;;;;;;;17.60;99.90;;;;;;5073705;28;20032;-75
2022/06/18 03:39:25;;;;;;;10.13;6.80;;;17.50;99.90;;;;;;5064432;28;19916;-75
2022/06/18 03:41:51;;;;;;;10.10;6.68;;;17.40;99.90;;;;;;5062914;28;20041;-75
2022/06/18 03:44:17;;;;;;;6.97;4.82;;;17.30;99.90;;;;;;5047552;28;20047;-75
2022/06/18 03:46:44;;;;;;;10.77;6.78;;;17.40;99.90;;;;;;5054425;28;20043;-75
2022/06/18 03:49:28;;;;;;;10.82;6.70;;;17.30;99.90;;;;;;5069355;28;20044;-75
2022/06/18 03:51:55;;;;;;;12.60;7.55;;;17.20;99.90;;;;;;5060791;28;20064;-76
2022/06/18 03:54:22;;;;;;;11.70;6.97;;;17.20;99.90;;;;;;5059020;28;20059;-76
2022/06/18 03:56:48;;;;;;;8.55;5.80;;;17.10;99.90;;;;;;5067144;28;20151;-75
2022/06/18 03:59:14;;;;;;;9.85;6.60;;;17.10;99.90;;;;;;5065326;28;20051;-76
2022/06/18 04:01:40;;;;;;;11.25;6.38;;;17.00;99.90;;;;;;5049101;28;20143;-75
2022/06/18 04:04:07;;;;;;;10.85;6.22;;;17.00;99.90;;;;;;5062662;28;20743;-75
2022/06/18 04:06:33;;;;;;;10.73;5.95;;;16.90;99.90;;;;;;5027035;28;20039;-76
2022/06/18 04:08:59;;;;;;;;;;;16.90;99.90;;;;;;5057475;28;20044;-76
2022/06/18 04:11:25;;;;;;;12.65;7.10;;;16.90;99.90;;;;;;5063605;28;19974;-75
2022/06/18 04:13:51;;;;;;;9.55;6.50;;;16.80;99.90;;;;;;5041590;28;20522;-75
2022/06/18 04:16:16;;;;;;;9.38;5.13;;;16.80;99.90;;;;;;5054939;28;20044;-75
2022/06/18 04:18:43;;;;;;;11.90;7.05;;;16.80;99.90;;;;;;5048542;28;20127;-75
2022/06/18 04:21:09;;;;;;;9.25;5.43;;;16.80;99.90;;;;;;5062832;28;20506;-75
2022/06/18 04:23:35;;;;;;;;;;;16.80;99.90;;;;;;5059948;28;20113;-75
2022/06/18 04:26:01;;;;;;;5.55;3.60;;;16.80;99.90;;;;;;5064819;28;19924;-75
2022/06/18 04:28:27;;;;;;;7.47;5.22;;;16.80;99.90;;;;;;5050677;28;20135;-76
2022/06/18 04:30:53;;;;;;;8.60;4.30;;;16.70;99.90;;;;;;5070192;28;20049;-75
2022/06/18 04:33:19;;;;;;;16.98;9.38;;;16.80;99.90;;;;;;5054350;28;20052;-75
2022/06/18 04:35:45;;;;;;;9.82;6.35;;;16.80;99.90;;;;;;5059306;28;20037;-74
2022/06/18 04:38:12;;;;;;;6.82;4.47;;;16.80;99.90;;;;;;5030837;28;20051;-75
2022/06/18 04:40:38;;;;;;;8.43;4.57;;;16.80;99.90;;;;;;5070123;28;20041;-75
2022/06/18 04:43:06;;;;;;;6.32;3.50;;;16.80;99.90;;;;;;5066195;28;20038;-74
2022/06/18 04:45:33;;;;;;;7.88;5.78;;;16.90;99.90;;;;;;5043440;28;20040;-74
2022/06/18 04:48:00;;;;;;;8.98;5.20;;;16.80;99.90;;;;;;5065658;28;20040;-74
2022/06/18 04:50:30;;;;;;;10.50;6.65;;;16.90;99.90;;;;;;5048118;28;20442;-75
2022/06/18 04:52:55;;;;;;;13.65;7.90;;;16.90;99.90;;;;;;5064300;28;20095;-75
2022/06/18 04:55:21;;;;;;;10.48;6.72;;;16.80;99.90;;;;;;5067819;28;20049;-76
2022/06/18 04:57:47;;;;;;;7.38;4.80;;;16.90;99.90;;;;;;5057948;28;20090;-76
2022/06/18 05:00:14;;;;;;;8.13;5.28;;;16.90;99.90;;;;;;5073065;28;20040;-77
2022/06/18 05:02:40;;;;;;;9.95;6.18;;;16.90;99.90;;;;;;5050747;28;20095;-76
2022/06/18 05:05:12;;;;;;;13.35;8.40;;;16.90;99.90;;;;;;5046507;28;20169;-76
2022/06/18 05:07:38;;;;;;;12.52;7.88;;;16.90;99.90;;;;;;5061871;28;20594;-75
2022/06/18 05:10:05;;;;;;;8.88;5.72;;;16.80;99.90;;;;;;5048793;28;20059;-76
2022/06/18 05:12:30;;;;;;;9.15;6.20;;;16.90;99.90;;;;;;5065236;28;20044;-76
2022/06/18 05:14:56;;;;;;;10.00;6.30;;;16.90;99.90;;;;;;5064563;28;20052;-76
2022/06/18 05:17:24;;;;;;;;;;;16.90;99.90;;;;;;5048690;28;20518;-75
2022/06/18 05:19:51;;;;;;;12.68;8.02;;;16.90;99.90;;;;;;5045071;28;20562;-75
2022/06/18 05:22:17;;;;;;;16.95;9.32;;;17.00;99.90;;;;;;5064011;28;20040;-75
2022/06/18 05:24:42;;;;;;;10.02;6.30;;;17.10;99.90;;;;;;5064772;28;20107;-76
2022/06/18 05:27:18;;;;;;;7.13;4.70;;;17.10;99.90;;;;;;5064523;28;20530;-76
2022/06/18 05:29:43;;;;;;;13.05;7.25;;;17.20;99.90;;;;;;5061466;28;20518;-76
2022/06/18 05:32:09;;;;;;;;;;;17.20;99.90;;;;;;5064179;28;20088;-76
2022/06/18 05:34:35;;;;;;;8.20;4.88;;;17.20;99.90;;;;;;5064287;28;19923;-77
2022/06/18 05:37:00;;;;;;;15.80;9.40;;;17.30;99.90;;;;;;5065419;28;20050;-75
2022/06/18 05:39:26;;;;;;;13.23;8.95;;;17.40;99.90;;;;;;5062245;28;20036;-75
2022/06/18 05:41:52;;;;;;;14.30;8.45;;;17.30;99.90;;;;;;5065427;28;20041;-76
2022/06/18 05:44:17;;;;;;;8.77;5.20;;;17.40;99.90;;;;;;5049071;28;20044;-75
2022/06/18 05:46:43;;;;;;;;;;;17.50;99.90;;;;;;5081280;28;20090;-75
2022/06/18 05:49:09;;;;;;;11.35;6.65;;;17.50;99.90;;;;;;5064384;28;20027;-75
2022/06/18 05:51:35;;;;;;;13.00;5.60;;;17.70;99.90;;;;;;5065915;28;20128;-75
2022/06/18 05:54:01;;;;;;;;;;;17.70;99.90;;;;;;5056441;28;20053;-75
2022/06/18 05:56:27;;;;;;;6.60;4.35;;;17.80;99.90;;;;;;5049311;28;19943;-75
2022/06/18 05:58:52;;;;;;;;;;;17.90;99.90;;;;;;5065180;28;20036;-75
2022/06/18 06:01:18;;;;;;;5.35;3.30;;;18.00;99.90;;;;;;5065363;28;19920;-74
2022/06/18 06:03:44;;;;;;;7.40;3.60;;;18.20;99.90;;;;;;5064476;28;20072;-74
2022/06/18 06:06:09;;;;;;;;;;;18.20;99.90;;;;;;5048230;28;20132;-74
2022/06/18 06:08:36;;;;;;;8.93;5.32;;;18.40;99.90;;;;;;5063453;28;19920;-74
2022/06/18 06:13:46;;;;;;;8.18;4.10;;;18.60;99.90;;;;;;5064105;28;20048;-74
2022/06/18 06:16:12;;;;;;;;;;;18.70;99.90;;;;;;5061327;28;20496;-74
2022/06/18 06:18:38;;;;;;;6.57;2.78;;;18.80;99.90;;;;;;5060806;28;20387;-75
2022/06/18 06:21:04;;;;;;;5.47;2.78;;;18.90;99.90;;;;;;5063468;28;20085;-74
2022/06/18 06:23:29;;;;;;;;;;;19.00;99.90;;;;;;5062693;28;20452;-74
2022/06/18 06:25:56;;;;;;;9.05;5.20;;;19.10;99.90;;;;;;5059197;28;19920;-74
2022/06/18 06:28:26;;;;;;;8.88;4.60;;;19.20;99.90;;;;;;5063692;28;20571;-74
2022/06/18 06:30:54;;;;;;;6.47;4.35;;;19.30;99.90;;;;;;5060493;28;20371;-74
2022/06/18 06:33:20;;;;;;;7.38;3.92;;;19.30;99.90;;;;;;5063997;28;20032;-75
2022/06/18 06:35:47;;;;;;;8.60;4.13;;;19.30;99.90;;;;;;5063576;28;20102;-74
2022/06/18 06:38:14;;;;;;;8.02;4.20;;;19.40;99.90;;;;;;5064110;28;20496;-74
2022/06/18 06:40:42;;;;;;;7.93;4.32;;;19.40;99.90;;;;;;5070709;28;20111;-74
2022/06/18 06:43:11;;;;;;;5.75;3.30;;;19.50;99.90;;;;;;5077107;28;20111;-74
2022/06/18 06:45:37;;;;;;;7.93;4.07;;;19.50;99.90;;;;;;5062569;28;20072;-75
2022/06/18 06:48:03;;;;;;;;;;;19.50;99.90;;;;;;5063659;28;20190;-75
2022/06/18 06:50:30;;;;;;;7.32;4.47;;;19.50;99.90;;;;;;5062429;28;19947;-75
2022/06/18 06:52:56;;;;;;;6.93;4.05;;;19.60;99.90;;;;;;5061120;28;20052;-75
2022/06/18 06:58:14;;;;;;;10.23;4.40;;;19.70;99.90;;;;;;5064218;28;20570;-75
2022/06/18 07:00:45;;;;;;;8.02;3.50;;;19.80;99.90;;;;;;5045607;28;20048;-75
2022/06/18 07:03:13;;;;;;;7.78;3.72;;;19.90;99.90;;;;;;5062478;28;20048;-74
2022/06/18 07:05:40;;;;;;;7.60;3.75;;;20.10;99.90;;;;;;5059508;28;20468;-75
2022/06/18 07:08:06;;;;;;;8.63;3.33;;;20.10;99.90;;;;;;5058567;28;20125;-74
2022/06/18 07:10:33;;;;;;;6.88;3.63;;;20.20;99.90;;;;;;5060028;28;20503;-74
2022/06/18 07:12:58;;;;;;;9.57;3.85;;;20.30;99.90;;;;;;5060965;28;20139;-75
2022/06/18 07:15:24;;;;;;;;;;;20.30;99.90;;;;;;5045314;28;20178;-75
2022/06/18 07:17:50;;;;;;;10.68;4.30;;;20.10;99.90;;;;;;5064318;28;19936;-75
2022/06/18 07:20:19;;;;;;;9.15;3.65;;;20.20;99.90;;;;;;5022004;28;20442;-74
2022/06/18 07:22:45;;;;;;;7.40;3.00;;;20.20;99.90;;;;;;5064584;28;20063;-75
2022/06/18 07:25:12;;;;;;;7.15;3.40;;;20.20;99.90;;;;;;5064924;28;20444;-74
2022/06/18 07:27:39;;;;;;;6.68;3.28;;;20.40;99.90;;;;;;5065709;28;20085;-75
2022/06/18 07:30:07;;;;;;;7.65;2.97;;;20.40;99.90;;;;;;5072655;28;20115;-74
2022/06/18 07:32:33;;;;;;;6.28;3.20;;;20.50;99.90;;;;;;5065125;28;20113;-76
2022/06/18 07:34:58;;;;;;;7.80;3.40;;;20.50;99.90;;;;;;5063496;28;20487;-75
2022/06/18 07:37:25;;;;;;;;;;;20.50;99.90;;;;;;5040521;28;20055;-74
2022/06/18 07:39:50;;;;;;;6.55;3.40;;;20.60;99.90;;;;;;5062079;28;19977;-75
2022/06/18 07:42:20;;;;;;;8.25;3.70;;;20.50;99.90;;;;;;5061015;28;20040;-75
2022/06/18 07:44:45;;;;;;;6.43;3.33;;;20.50;99.90;;;;;;5060563;28;21226;-75
2022/06/18 07:47:17;;;;;;;6.18;2.70;;;20.60;99.90;;;;;;5060245;28;20480;-75
2022/06/18 07:49:45;;;;;;;7.75;2.95;;;20.50;99.90;;;;;;5063259;28;20154;-76
2022/06/18 07:52:12;;;;;;;5.93;2.58;;;20.50;99.90;;;;;;5058659;28;20051;-75
2022/06/18 07:54:39;;;;;;;6.07;2.50;;;20.60;99.90;;;;;;5067511;28;20051;-74
2022/06/18 07:57:05;;;;;;;9.30;2.45;;;20.70;99.90;;;;;;5064795;28;20049;-75
2022/06/18 07:59:32;;;;;;;4.85;2.35;;;20.70;99.90;;;;;;5056177;28;20317;-74
2022/06/18 08:01:58;;;;;;;6.40;2.30;;;20.70;99.90;;;;;;5047655;28;20041;-75
2022/06/18 08:04:24;;;;;;;4.72;2.20;;;20.90;99.90;;;;;;5065385;28;20036;-75
2022/06/18 08:06:49;;;;;;;6.90;2.05;;;20.90;99.90;;;;;;5064066;28;20032;-75
2022/06/18 08:09:15;;;;;;;;;;;21.00;99.90;;;;;;5063343;28;20045;-74
2022/06/18 08:11:41;;;;;;;3.47;2.03;;;21.30;99.90;;;;;;5065970;28;20082;-74
2022/06/18 08:14:07;;;;;;;4.13;2.00;;;21.40;99.90;;;;;;5065663;28;20091;-74
2022/06/18 08:16:33;;;;;;;4.60;1.52;;;21.30;99.90;;;;;;5069104;28;20047;-74
2022/06/18 08:18:58;;;;;;;4.55;1.73;;;21.40;99.90;;;;;;5063864;28;20048;-74
2022/06/18 08:21:29;;;;;;;3.65;1.50;;;21.50;99.90;;;;;;5064173;28;20460;-74
2022/06/18 08:24:01;;;;;;;5.47;1.60;;;21.50;99.90;;;;;;5062992;28;20028;-74
2022/06/18 08:26:27;;;;;;;3.33;1.25;;;21.40;99.90;;;;;;5065723;28;20407;-74
2022/06/18 08:28:54;;;;;;;2.50;1.30;;;21.40;99.90;;;;;;5064849;28;20116;-75
2022/06/18 08:31:20;;;;;;;3.13;1.10;;;21.30;99.90;;;;;;5059255;28;20098;-74
2022/06/18 08:33:46;;;;;;;3.22;1.02;;;21.60;99.90;;;;;;5060585;28;20051;-74
2022/06/18 08:36:15;;;;;;;2.55;1.20;;;21.60;99.90;;;;;;5039194;28;20055;-74
2022/06/18 08:38:43;;;;;;;2.60;1.00;;;21.70;99.90;;;;;;5045114;28;20070;-75
2022/06/18 08:41:30;;;;;;;2.30;0.88;;;21.80;99.90;;;;;;5065222;28;20047;-71
2022/06/18 08:44:14;;;;;;;;;;;21.50;99.90;;;;;;5059331;28;20389;-71
2022/06/18 08:46:55;;;;;;;2.25;0.95;;;21.40;99.90;;;;;;5061687;28;20397;-71
2022/06/18 08:49:23;;;;;;;3.55;1.20;;;21.50;99.90;;;;;;5069993;28;20052;-70
2022/06/18 08:52:12;;;;;;;1.55;0.90;;;21.30;99.90;;;;;;5049045;28;20040;-70
2022/06/18 08:55:13;;;;;;;2.00;0.98;;;21.50;99.90;;;;;;5070555;28;20077;-70
2022/06/18 08:57:58;;;;;;;2.15;1.08;;;21.90;99.90;;;;;;5061600;28;20155;-70
2022/06/18 09:00:51;;;;;;;1.63;0.70;;;21.80;99.90;;;;;;5049579;28;20314;-70
2022/06/18 09:03:41;;;;;;;2.30;0.82;;;21.70;99.90;;;;;;5064731;28;20052;-69
2022/06/18 09:06:30;;;;;;;2.65;0.82;;;21.70;99.90;;;;;;5065540;28;20123;-70
2022/06/18 09:09:20;;;;;;;1.55;0.75;;;21.70;99.90;;;;;;5065594;28;20048;-70
2022/06/18 09:12:05;;;;;;;3.70;1.25;;;21.80;99.90;;;;;;5064775;28;20533;-70
2022/06/18 09:14:38;;;;;;;1.98;0.90;;;21.70;99.90;;;;;;5064851;28;20399;-70
2022/06/18 09:17:19;;;;;;;2.67;1.27;;;21.80;99.90;;;;;;5064154;28;20048;-70
2022/06/18 09:19:54;;;;;;;2.00;0.80;;;21.70;99.90;;;;;;5080408;28;20131;-70
2022/06/18 09:22:20;;;;;;;2.60;1.08;;;22.00;99.90;;;;;;5056052;28;20032;-70
2022/06/18 09:24:49;;;;;;;1.15;0.80;;;22.10;99.90;;;;;;5064419;28;20075;-70
2022/06/18 09:27:26;;;;;;;2.30;0.80;;;22.20;99.90;;;;;;5067172;28;20043;-70
2022/06/18 09:30:42;;;;;;;2.72;0.98;;;22.30;99.90;;;;;;5047912;28;20044;-70
2022/06/18 09:33:14;;;;;;;2.63;1.10;;;22.10;99.90;;;;;;4967393;28;20046;-70
2022/06/18 09:35:53;;;;;;;2.63;1.23;;;22.00;99.90;;;;;;5042134;28;20036;-70
2022/06/18 09:38:26;;;;;;;2.67;1.02;;;22.10;99.90;;;;;;5062459;28;20040;-70
2022/06/18 09:40:58;;;;;;;1.27;0.60;;;22.20;99.90;;;;;;5063382;28;21476;-70
2022/06/18 09:43:45;;;;;;;1.88;0.93;;;22.20;99.90;;;;;;5062336;28;20032;-69
2022/06/18 09:46:40;;;;;;;2.22;1.08;;;22.30;99.90;;;;;;5063332;28;20040;-71
2022/06/18 09:49:05;;;;;;;1.80;0.77;;;22.30;99.90;;;;;;5069833;28;20044;-71
2022/06/18 09:51:47;;;;;;;2.75;0.82;;;22.40;99.90;;;;;;5061603;28;20052;-71
2022/06/18 09:54:16;;;;;;;2.10;0.80;;;22.30;99.90;;;;;;5045864;28;20032;-71
2022/06/18 09:56:50;;;;;;;2.40;1.08;;;22.40;99.90;;;;;;5060808;28;20052;-71
2022/06/18 09:59:21;;;;;;;1.00;0.70;;;22.40;99.90;;;;;;5073137;28;20066;-71
2022/06/18 10:01:52;;;;;;;1.67;0.70;;;22.60;99.90;;;;;;5059330;28;20247;-72
2022/06/18 10:07:26;;;;;;;1.73;0.90;;;23.00;99.90;;;;;;5063168;28;20048;-71
2022/06/18 10:09:57;;;;;;;2.08;0.90;;;23.00;99.90;;;;;;5060659;28;20047;-71
2022/06/18 10:12:33;;;;;;;4.25;1.10;;;23.40;99.90;;;;;;5061931;28;20055;-71
2022/06/18 10:15:01;;;;;;;3.13;0.90;;;23.20;99.90;;;;;;5057501;28;20499;-71
2022/06/18 10:17:35;;;;;;;2.25;0.95;;;23.10;99.90;;;;;;5062712;28;20044;-72
2022/06/18 10:20:13;;;;;;;1.83;0.70;;;22.90;99.90;;;;;;5059252;28;20040;-71
2022/06/18 10:22:43;;;;;;;2.38;0.75;;;23.10;99.90;;;;;;5046612;28;20083;-72
2022/06/18 10:25:39;;;;;;;2.38;0.70;;;23.20;99.90;;;;;;5060766;28;20041;-71
2022/06/18 10:28:34;;;;;;;2.03;0.83;;;23.40;99.90;;;;;;5063562;28;20051;-71
2022/06/18 10:31:18;;;;;;;1.67;0.70;;;23.50;99.90;;;;;;5061520;28;22103;-71
2022/06/18 10:33:43;;;;;;;2.92;1.00;;;23.40;99.90;;;;;;5045890;28;20048;-72
2022/06/18 10:36:33;;;;;;;1.33;0.70;;;23.40;99.90;;;;;;5047577;28;20490;-71
2022/06/18 10:39:30;;;;;;;2.08;0.82;;;23.40;99.90;;;;;;5062618;28;20045;-71
2022/06/18 10:42:14;;;;;;;1.10;0.50;;;23.40;99.90;;;;;;5043663;28;20114;-71
2022/06/18 10:44:52;;;;;;;3.50;0.90;;;23.90;99.90;;;;;;5062971;28;20384;-70
2022/06/18 10:47:18;;;;;;;2.03;0.75;;;23.60;99.90;;;;;;5047310;28;20032;-71
2022/06/18 10:49:45;;;;;;;1.55;0.60;;;23.80;99.90;;;;;;5061708;28;20063;-71
2022/06/18 10:52:22;;;;;;;1.40;0.80;;;23.70;99.90;;;;;;5063774;28;20054;-70
2022/06/18 10:54:48;;;;;;;1.83;0.80;;;23.60;99.90;;;;;;5065573;28;20127;-71
2022/06/18 10:57:26;;;;;;;1.48;0.73;;;23.50;99.90;;;;;;5075934;28;20167;-71
2022/06/18 10:59:52;;;;;;;1.38;0.95;;;23.90;99.90;;;;;;5066675;28;20036;-70
2022/06/18 11:02:33;;;;;;;1.17;0.57;;;24.20;99.90;;;;;;5050534;28;20047;-71
2022/06/18 11:05:03;;;;;;;1.67;0.90;;;24.00;99.90;;;;;;5066876;28;20071;-71
2022/06/18 11:07:33;;;;;;;1.25;0.65;;;23.60;99.90;;;;;;5051550;28;20529;-70
2022/06/18 11:10:19;;;;;;;1.23;0.70;;;23.50;99.90;;;;;;5067021;28;20040;-71
2022/06/18 11:12:55;;;;;;;1.42;0.70;;;23.70;99.90;;;;;;5070749;28;20032;-72
2022/06/18 11:15:31;;;;;;;1.15;0.60;;;23.50;99.90;;;;;;5050514;28;20123;-71
2022/06/18 11:17:57;;;;;;;;;;;23.90;99.90;;;;;;5066616;28;20135;-71
2022/06/18 11:20:29;;;;;;;1.60;0.60;;;24.20;99.90;;;;;;5061837;28;20015;-71
2022/06/18 11:23:13;;;;;;;1.98;0.60;;;24.60;99.90;;;;;;5047449;28;20035;-71
2022/06/18 11:25:39;;;;;;;2.28;0.52;;;24.80;99.90;;;;;;5063473;28;20060;-68
2022/06/18 11:28:15;;;;;;;1.50;0.55;;;24.70;99.90;;;;;;5068506;28;20471;-72
2022/06/18 11:30:43;;;;;;;1.40;0.70;;;24.20;99.90;;;;;;5067619;28;20044;-72
2022/06/18 11:33:23;;;;;;;0.95;0.40;;;24.20;99.90;;;;;;5066807;28;20499;-69
2022/06/18 11:35:50;;;;;;;1.35;0.50;;;23.90;99.90;;;;;;5077214;28;20368;-70
2022/06/18 11:38:32;;;;;;;0.98;0.57;;;23.80;99.90;;;;;;5072667;28;20076;-77
2022/06/18 11:41:22;;;;;;;2.05;0.57;;;23.60;99.90;;;;;;5063292;28;20186;-71
2022/06/18 11:44:04;;;;;;;1.63;0.50;;;23.80;99.90;;;;;;5066489;28;20494;-73
2022/06/18 11:46:43;;;;;;;1.45;0.70;;;23.90;99.90;;;;;;5064890;28;20558;-72
2022/06/18 11:49:30;;;;;;;2.38;0.70;;;23.80;99.90;;;;;;5065783;28;20477;-72
2022/06/18 11:52:18;;;;;;;2.33;0.90;;;23.60;99.90;;;;;;5066100;28;20121;-72
2022/06/18 11:55:11;;;;;;;3.55;0.85;;;23.90;99.90;;;;;;5066343;28;20064;-72
2022/06/18 11:58:00;;;;;;;2.00;0.80;;;23.90;99.90;;;;;;5070468;28;20049;-72
2022/06/18 12:00:37;;;;;;;3.10;1.08;;;24.00;99.90;;;;;;5065751;28;20037;-72
2022/06/18 12:03:27;;;;;;;2.72;0.80;;;24.00;99.90;;;;;;5064811;28;20127;-71
2022/06/18 12:06:01;;;;;;;3.03;1.10;;;23.40;99.90;;;;;;5050126;28;20066;-72
2022/06/18 12:08:28;;;;;;;2.30;0.77;;;23.50;99.90;;;;;;5066593;28;20048;-70
2022/06/18 12:11:04;;;;;;;2.55;0.90;;;23.60;99.90;;;;;;5072416;28;20056;-75
2022/06/18 12:13:48;;;;;;;3.28;0.80;;;23.70;99.90;;;;;;5063988;28;20094;-76
2022/06/18 12:16:42;;;;;;;3.83;0.95;;;23.60;99.90;;;;;;5067904;28;20037;-76
2022/06/18 12:19:34;;;;;;;2.53;0.98;;;23.60;99.90;;;;;;5006373;28;20110;-76
2022/06/18 12:22:14;;;;;;;3.03;0.90;;;23.20;99.90;;;;;;5063034;28;20157;-75
2022/06/18 12:24:46;;;;;;;4.53;1.00;;;23.50;99.90;;;;;;5078344;28;20048;-75
2022/06/18 12:27:24;;;;;;;6.72;1.25;;;23.30;99.90;;;;;;5072643;28;20040;-75
2022/06/18 12:30:08;;;;;;;3.75;1.05;;;23.40;99.90;;;;;;5066665;28;20044;-75
2022/06/18 12:33:01;;;;;;;3.45;0.90;;;23.50;99.90;;;;;;5066472;28;20375;-75
2022/06/18 12:35:37;;;;;;;4.97;1.30;;;23.70;99.90;;;;;;5066651;28;20044;-76
2022/06/18 12:38:21;;;;;;;;;;;23.40;99.90;;;;;;5083604;28;20080;-76
2022/06/18 12:41:06;;;;;;;3.60;1.35;;;23.50;99.90;;;;;;5066160;28;20079;-76
2022/06/18 12:43:53;;;;;;;4.32;1.10;;;23.60;99.90;;;;;;5080279;28;20049;-76
2022/06/18 12:46:27;;;;;;;3.92;1.30;;;23.60;99.90;;;;;;5071836;28;20048;-76
2022/06/18 12:49:42;;;;;;;6.57;1.30;;;23.50;99.90;;;;;;5065591;28;20049;-76
2022/06/18 12:52:22;;;;;;;4.97;1.33;;;23.20;99.90;;;;;;5029994;28;20052;-76
2022/06/18 12:55:14;;;;;;;4.65;1.10;;;23.10;99.90;;;;;;5064395;28;20040;-75
2022/06/18 12:58:06;;;;;;;2.97;1.10;;;23.20;99.90;;;;;;5049757;28;20436;-76
2022/06/18 13:00:50;;;;;;;5.32;1.40;;;23.10;99.90;;;;;;5037937;28;20040;-76
2022/06/18 13:03:19;;;;;;;5.90;1.42;;;22.90;99.90;;;;;;5049158;28;20040;-75
2022/06/18 13:05:48;;;;;;;5.35;1.38;;;23.00;99.90;;;;;;5063376;28;20049;-76
2022/06/18 13:08:48;;;;;;;5.43;1.38;;;22.80;99.90;;;;;;5065485;28;20040;-76
2022/06/18 13:11:21;;;;;;;4.72;1.40;;;22.90;99.90;;;;;;5062787;28;20044;-77
2022/06/18 13:14:08;;;;;;;5.10;1.25;;;22.50;99.90;;;;;;5062187;28;21007;-76
2022/06/18 13:16:34;;;;;;;5.85;1.60;;;22.20;99.90;;;;;;5049546;28;20391;-75
2022/06/18 13:19:16;;;;;;;4.55;1.15;;;22.20;99.90;;;;;;5064997;28;20049;-76
2022/06/18 13:21:43;;;;;;;4.68;1.23;;;22.10;99.90;;;;;;5066061;28;20098;-76
2022/06/18 13:30:20;;;;;;;4.15;1.00;;;21.60;99.90;;;;;;5039296;28;20076;-76
2022/06/18 13:33:18;;;;;;;5.63;1.42;;;21.80;99.90;;;;;;5058481;28;20342;-76
2022/06/18 13:35:57;;;;;;;5.13;1.73;;;21.90;99.90;;;;;;5063803;28;20039;-77